Time;durP1;ratioP1;P1;durP2;ratioP2;P2;SDS_P1;SDS_P2;PMS_P1;PMS_P2;Temp;Humidity;BMP_temperature;BMP_pressure;BME280_temperature;BME280_humidity;BME280_pressure;Samples;Min_cycle;Max_cycle;Signal;HPM_P1;HPM_P2
2022/12/17 13:08:06;;;;;;;3.63;3.43;;;-2.70;97.30;;;;;;4963878;28;20410;-85
2022/12/17 13:10:33;;;;;;;3.00;2.80;;;-2.70;97.30;;;;;;4955529;28;20413;-85
2022/12/17 13:13:11;;;;;;;13.70;5.47;;;-2.70;97.30;;;;;;4956813;28;20512;-86
2022/12/17 13:15:41;;;;;;;8.67;6.23;;;-2.70;97.30;;;;;;4955248;28;20827;-85
2022/12/17 13:18:26;;;;;;;7.93;5.10;;;-2.70;97.30;;;;;;4955931;28;20418;-86
2022/12/17 13:21:00;;;;;;;11.73;6.33;;;-2.70;97.30;;;;;;4942511;28;20430;-87
2022/12/17 13:23:29;;;;;;;11.13;4.83;;;-2.70;97.30;;;;;;4952680;28;21177;-86
2022/12/17 13:26:19;;;;;;;15.80;5.63;;;-2.70;97.30;;;;;;4956520;28;20528;-85
2022/12/17 13:28:58;;;;;;;5.23;4.67;;;-2.80;97.30;;;;;;4944870;29;20415;-87
2022/12/17 13:31:45;;;;;;;8.90;4.53;;;-2.90;97.30;;;;;;4960951;28;20422;-85
2022/12/17 13:34:40;;;;;;;5.63;4.33;;;-2.90;97.30;;;;;;4956343;28;20508;-87
2022/12/17 13:37:26;;;;;;;10.53;8.03;;;-2.80;97.30;;;;;;4939616;28;20738;-88
2022/12/17 13:40:23;;;;;;;8.33;7.90;;;-2.80;97.30;;;;;;4956332;28;20413;-85
2022/12/17 13:42:49;;;;;;;3.70;3.50;;;-2.90;97.30;;;;;;4944449;28;20457;-85
2022/12/17 13:45:17;;;;;;;6.13;3.50;;;-2.90;97.30;;;;;;4955652;28;20583;-85
2022/12/17 13:47:42;;;;;;;6.43;4.13;;;-2.90;97.30;;;;;;4956209;28;20422;-85
2022/12/17 13:50:26;;;;;;;6.00;4.80;;;-3.00;97.30;;;;;;4955532;28;20419;-87
2022/12/17 13:52:52;;;;;;;3.57;3.37;;;-3.00;97.30;;;;;;4956129;28;20191;-84
2022/12/17 13:55:26;;;;;;;4.17;3.30;;;-3.00;97.30;;;;;;4955763;28;21059;-85
2022/12/17 13:57:52;;;;;;;3.40;3.20;;;-3.00;97.30;;;;;;4955629;28;20440;-88
2022/12/17 14:00:26;;;;;;;7.07;4.33;;;-3.00;97.30;;;;;;4955532;28;20448;-85
2022/12/17 14:02:53;;;;;;;12.57;6.43;;;-2.90;97.30;;;;;;4955256;28;20512;-85
2022/12/17 14:05:36;;;;;;;12.93;5.20;;;-2.90;97.30;;;;;;4955729;28;20493;-86
2022/12/17 14:08:04;;;;;;;7.00;4.13;;;-2.90;97.30;;;;;;4972708;28;20420;-86
2022/12/17 14:10:31;;;;;;;7.83;4.47;;;-3.00;97.30;;;;;;4951607;28;20453;-88
2022/12/17 14:13:09;;;;;;;15.00;8.20;;;-2.90;97.30;;;;;;4954195;28;20427;-85
2022/12/17 14:15:35;;;;;;;12.17;5.97;;;-3.00;97.30;;;;;;4940426;28;20476;-84
2022/12/17 14:18:01;;;;;;;4.87;3.57;;;-3.00;97.30;;;;;;4953313;28;20426;-85
2022/12/17 14:20:34;;;;;;;18.73;7.67;;;-3.10;97.30;;;;;;4955014;28;20426;-87
2022/12/17 14:23:13;;;;;;;6.37;5.60;;;-3.10;97.30;;;;;;4963152;28;20516;-85
2022/12/17 14:25:42;;;;;;;10.33;2.90;;;-3.10;97.30;;;;;;4949475;28;20595;-88
2022/12/17 14:28:31;;;;;;;5.03;3.23;;;-3.10;97.30;;;;;;4945303;28;20422;-84
2022/12/17 14:31:05;;;;;;;7.00;5.37;;;-3.20;97.30;;;;;;4951707;28;20685;-85
2022/12/17 14:33:36;;;;;;;7.80;4.40;;;-3.20;97.30;;;;;;4972954;28;21007;-84
2022/12/17 14:36:15;;;;;;;7.07;6.67;;;-3.20;97.30;;;;;;4955745;28;20983;-85
2022/12/17 14:38:59;;;;;;;13.43;3.77;;;-3.20;97.30;;;;;;4949082;28;20429;-85
2022/12/17 14:44:26;;;;;;;8.33;6.17;;;-3.20;97.30;;;;;;4973075;28;20452;-87
2022/12/17 14:47:23;;;;;;;3.17;2.97;;;-3.20;97.30;;;;;;4955288;28;21005;-84
2022/12/17 14:50:03;;;;;;;24.73;5.67;;;-3.20;97.30;;;;;;4953470;28;20687;-88
2022/12/17 14:52:39;;;;;;;5.97;5.67;;;-3.20;97.30;;;;;;4951011;28;20414;-88
2022/12/17 14:55:37;;;;;;;4.33;4.10;;;-3.30;97.30;;;;;;4954583;28;20819;-88
2022/12/17 14:58:12;;;;;;;8.20;5.50;;;-3.30;97.30;;;;;;4944411;28;20960;-88
2022/12/17 15:00:48;;;;;;;5.97;5.63;;;-3.30;97.30;;;;;;4955122;28;20424;-88
2022/12/17 15:03:30;;;;;;;4.40;4.13;;;-3.30;97.30;;;;;;4951874;28;20496;-87
2022/12/17 15:06:07;;;;;;;6.37;6.00;;;-3.30;97.30;;;;;;4947630;28;20456;-88
2022/12/17 15:08:36;;;;;;;7.10;6.70;;;-3.30;97.30;;;;;;4953329;28;20421;-88
2022/12/17 15:11:02;;;;;;;6.73;5.23;;;-3.20;97.30;;;;;;4955215;28;20430;-88
2022/12/17 15:13:27;;;;;;;5.23;4.93;;;-3.20;97.30;;;;;;4951824;28;20972;-87
2022/12/17 15:15:53;;;;;;;4.80;3.67;;;-3.20;97.30;;;;;;4953902;28;20469;-89
2022/12/17 15:18:18;;;;;;;5.03;4.73;;;-3.20;97.30;;;;;;4953522;28;20249;-88
2022/12/17 15:20:44;;;;;;;9.73;5.50;;;-3.20;97.30;;;;;;4956031;28;20190;-89
2022/12/17 15:23:19;;;;;;;11.40;5.50;;;-3.30;97.30;;;;;;4949881;28;20214;-88
2022/12/17 15:25:47;;;;;;;6.27;5.93;;;-3.30;97.30;;;;;;4954624;28;20198;-89
2022/12/17 15:28:13;;;;;;;10.43;7.37;;;-3.30;97.30;;;;;;4953801;28;20430;-89
2022/12/17 15:30:38;;;;;;;5.80;4.27;;;-3.30;97.30;;;;;;4974004;28;20835;-90
2022/12/17 15:33:05;;;;;;;4.83;4.50;;;-3.30;97.30;;;;;;4954391;28;20441;-89
2022/12/17 15:35:31;;;;;;;7.77;5.70;;;-3.20;97.30;;;;;;4941587;28;20214;-89
2022/12/17 15:37:59;;;;;;;7.03;3.60;;;-3.20;97.30;;;;;;4953446;28;20449;-89
2022/12/17 15:40:25;;;;;;;7.07;6.03;;;-3.20;97.30;;;;;;4954799;28;20426;-89
2022/12/17 15:45:35;;;;;;;11.67;4.90;;;-3.20;97.30;;;;;;4974209;28;20574;-89
2022/12/17 15:48:00;;;;;;;8.37;4.93;;;-3.10;97.30;;;;;;4958603;28;20414;-88
2022/12/17 15:50:27;;;;;;;9.40;3.80;;;-3.10;97.30;;;;;;4953141;28;20171;-89
2022/12/17 15:52:52;;;;;;;11.03;6.93;;;-3.00;97.30;;;;;;4940752;28;20198;-88
2022/12/17 15:55:20;;;;;;;18.00;6.87;;;-3.00;97.30;;;;;;4953900;28;20820;-89
2022/12/17 15:57:45;;;;;;;5.40;3.20;;;-3.00;97.30;;;;;;4952873;28;20311;-88
2022/12/17 16:00:12;;;;;;;10.77;8.53;;;-3.00;97.30;;;;;;4954223;28;20457;-89
2022/12/17 16:02:40;;;;;;;8.10;5.50;;;-3.00;97.30;;;;;;4973969;28;20191;-90
2022/12/17 16:05:09;;;;;;;10.03;4.87;;;-3.00;97.30;;;;;;4979796;28;20465;-91
2022/12/17 16:07:36;;;;;;;13.67;11.63;;;-3.00;97.30;;;;;;4967929;28;20424;-89
2022/12/17 16:10:03;;;;;;;10.27;6.10;;;-3.00;97.30;;;;;;4974159;28;20927;-89
2022/12/17 16:12:31;;;;;;;12.80;7.33;;;-3.00;97.30;;;;;;4959360;28;20454;-89
2022/12/17 16:14:56;;;;;;;9.80;4.63;;;-3.00;97.30;;;;;;4954387;28;20528;-89
2022/12/17 16:17:22;;;;;;;8.97;6.10;;;-3.00;97.30;;;;;;4953908;28;20517;-89
2022/12/17 16:19:48;;;;;;;18.93;8.30;;;-3.00;97.30;;;;;;4953840;28;20198;-88
2022/12/17 16:22:13;;;;;;;15.03;7.60;;;-3.00;97.30;;;;;;4953782;28;20190;-88
2022/12/17 16:24:39;;;;;;;11.00;5.47;;;-3.10;97.30;;;;;;4954679;28;20179;-88
2022/12/17 16:27:06;;;;;;;22.77;7.57;;;-3.00;97.30;;;;;;4957658;28;20210;-88
2022/12/17 16:29:32;;;;;;;4.73;3.60;;;-3.00;97.30;;;;;;4986140;28;20421;-89
2022/12/17 16:31:59;;;;;;;8.70;5.40;;;-3.00;97.30;;;;;;4974560;28;20430;-88
2022/12/17 16:34:24;;;;;;;10.77;4.03;;;-3.00;97.30;;;;;;4968439;28;20798;-87
2022/12/17 16:36:50;;;;;;;11.17;5.70;;;-3.00;97.30;;;;;;4957780;28;20422;-86
2022/12/17 16:39:17;;;;;;;7.50;5.37;;;-3.00;97.30;;;;;;4961579;28;20719;-88
2022/12/17 16:41:43;;;;;;;10.73;5.10;;;-3.00;97.30;;;;;;4955857;28;20205;-88
2022/12/17 16:44:08;;;;;;;6.07;5.80;;;-3.00;97.30;;;;;;4964014;28;20457;-89
2022/12/17 16:46:37;;;;;;;5.90;4.37;;;-2.90;97.30;;;;;;4957169;28;20868;-89
2022/12/17 16:49:23;;;;;;;5.27;4.20;;;-3.00;97.30;;;;;;4956779;28;20201;-88
2022/12/17 16:51:50;;;;;;;6.93;5.70;;;-3.00;97.30;;;;;;4956002;28;20948;-89
2022/12/17 16:54:22;;;;;;;9.80;4.10;;;-3.00;97.30;;;;;;4948943;28;20424;-89
2022/12/17 16:56:48;;;;;;;11.43;5.97;;;-3.00;97.30;;;;;;4971323;28;20421;-88
2022/12/17 16:59:15;;;;;;;8.60;5.70;;;-3.00;97.30;;;;;;4979491;28;20690;-88
2022/12/17 17:01:43;;;;;;;10.23;8.03;;;-3.00;97.30;;;;;;4967773;28;20521;-88
2022/12/17 17:04:10;;;;;;;16.83;5.93;;;-3.00;97.30;;;;;;4955850;28;20457;-88
2022/12/17 17:06:40;;;;;;;29.93;9.57;;;-3.00;97.30;;;;;;4949830;29;20498;-88
2022/12/17 17:09:06;;;;;;;11.40;6.43;;;-3.00;97.30;;;;;;4949670;28;20634;-88
2022/12/17 17:11:32;;;;;;;7.13;5.60;;;-3.00;97.30;;;;;;4955885;28;20421;-88
2022/12/17 17:13:57;;;;;;;7.87;5.70;;;-3.00;97.30;;;;;;4954358;28;20473;-85
2022/12/17 17:16:24;;;;;;;9.87;6.77;;;-3.00;97.30;;;;;;4974212;23;20238;-87
2022/12/17 17:18:52;;;;;;;8.37;5.33;;;-3.00;97.30;;;;;;4981713;28;20689;-87
2022/12/17 17:21:28;;;;;;;4.40;3.83;;;-3.00;97.30;;;;;;4975977;28;20436;-86
2022/12/17 17:24:02;;;;;;;5.93;5.63;;;-3.10;97.30;;;;;;4988298;28;20467;-88
2022/12/17 17:26:31;;;;;;;5.63;5.07;;;-3.20;97.30;;;;;;4982843;28;20455;-87
2022/12/17 17:28:56;;;;;;;10.40;7.27;;;-3.20;97.30;;;;;;4987548;28;20419;-86
2022/12/17 17:31:22;;;;;;;17.03;7.47;;;-3.20;97.30;;;;;;4992855;28;20512;-88
2022/12/17 17:33:50;;;;;;;9.67;6.77;;;-3.20;97.30;;;;;;4975836;28;20512;-85
2022/12/17 17:36:27;;;;;;;8.87;6.97;;;-3.20;97.30;;;;;;4974344;28;20421;-86
2022/12/17 17:38:53;;;;;;;20.70;11.70;;;-3.20;97.30;;;;;;4982689;28;20997;-87
2022/12/17 17:41:21;;;;;;;7.57;5.53;;;-3.10;97.30;;;;;;4975488;28;20426;-87
2022/12/17 17:43:50;;;;;;;7.33;6.90;;;-3.10;97.30;;;;;;4991657;28;20464;-86
2022/12/17 17:46:17;;;;;;;9.70;6.20;;;-3.10;97.30;;;;;;4977864;28;20843;-85
2022/12/17 17:48:45;;;;;;;13.57;6.90;;;-3.20;97.30;;;;;;4976498;28;20421;-85
2022/12/17 17:51:18;;;;;;;7.80;6.47;;;-3.20;97.30;;;;;;4975616;28;20449;-86
2022/12/17 17:53:46;;;;;;;9.77;5.07;;;-3.30;97.30;;;;;;4975867;28;20966;-84
2022/12/17 17:56:17;;;;;;;8.73;5.97;;;-3.40;97.30;;;;;;4975060;28;20814;-86
2022/12/17 17:58:48;;;;;;;7.53;4.17;;;-3.40;97.30;;;;;;4974354;28;20425;-85
2022/12/17 18:01:18;;;;;;;5.50;4.80;;;-3.40;97.30;;;;;;4969584;28;20425;-87
2022/12/17 18:03:43;;;;;;;16.70;11.57;;;-3.40;97.30;;;;;;4971290;28;20536;-89
2022/12/17 18:06:12;;;;;;;7.70;6.97;;;-3.40;97.30;;;;;;4974459;28;20512;-85
2022/12/17 18:08:38;;;;;;;10.23;4.87;;;-3.30;97.30;;;;;;4974684;28;20206;-88
2022/12/17 18:11:06;;;;;;;26.50;10.30;;;-3.30;97.30;;;;;;4975218;28;20953;-86
2022/12/17 18:16:17;;;;;;;12.00;6.30;;;-3.30;97.30;;;;;;4993381;28;21210;-86
2022/12/17 18:18:43;;;;;;;9.73;4.53;;;-3.30;97.30;;;;;;4974683;28;20441;-86
2022/12/17 18:21:11;;;;;;;8.27;6.20;;;-3.30;97.30;;;;;;4975017;28;20569;-88
2022/12/17 18:23:37;;;;;;;13.60;8.53;;;-3.30;97.30;;;;;;4971114;28;20257;-86
2022/12/17 18:26:44;;;;;;;9.30;6.73;;;-3.30;97.30;;;;;;4968814;28;20477;-85
2022/12/17 18:29:38;;;;;;;8.07;5.97;;;-3.30;97.30;;;;;;4990286;28;20428;-85
2022/12/17 18:32:24;;;;;;;11.80;9.67;;;-3.20;97.30;;;;;;4977330;28;20436;-86
2022/12/17 18:34:50;;;;;;;9.53;7.17;;;-3.30;97.30;;;;;;4976109;28;20421;-85
2022/12/17 18:37:15;;;;;;;10.80;6.20;;;-3.30;97.30;;;;;;4980010;28;20451;-85
2022/12/17 18:39:41;;;;;;;6.43;5.90;;;-3.30;97.30;;;;;;4973372;28;20179;-88
2022/12/17 18:44:52;;;;;;;11.30;6.83;;;-3.30;97.30;;;;;;4993671;28;20695;-85
2022/12/17 18:47:17;;;;;;;7.90;3.53;;;-3.30;97.30;;;;;;4987688;28;20440;-85
2022/12/17 18:49:43;;;;;;;12.40;9.83;;;-3.40;97.30;;;;;;4977374;28;20178;-85
2022/12/17 18:52:09;;;;;;;17.07;8.53;;;-3.50;97.30;;;;;;4974875;28;20182;-87
2022/12/17 18:54:35;;;;;;;4.67;4.37;;;-3.50;97.30;;;;;;4997301;28;20452;-86
2022/12/17 18:57:00;;;;;;;12.03;6.53;;;-3.50;97.30;;;;;;4977287;28;20197;-86
2022/12/17 18:59:27;;;;;;;9.20;6.90;;;-3.50;97.30;;;;;;4974277;28;20272;-88
2022/12/17 19:02:21;;;;;;;14.83;8.87;;;-3.50;97.30;;;;;;4973154;28;20192;-88
2022/12/17 19:09:09;;;;;;;11.57;6.83;;;-3.50;97.30;;;;;;4830599;29;20422;-85
2022/12/17 19:11:38;;;;;;;22.67;9.67;;;-3.40;97.30;;;;;;4808065;29;20430;-85
2022/12/17 19:14:09;;;;;;;8.90;7.73;;;-3.40;97.30;;;;;;4937495;28;20463;-85
2022/12/17 19:19:56;;;;;;;19.10;10.97;;;-3.40;97.30;;;;;;4921455;29;20505;-85
2022/12/17 19:22:24;;;;;;;6.63;6.23;;;-3.50;97.30;;;;;;4912330;29;20409;-87
2022/12/17 19:25:10;;;;;;;17.73;8.47;;;-3.50;97.30;;;;;;4932069;28;20258;-85
2022/12/17 19:27:36;;;;;;;21.53;8.57;;;-3.60;97.30;;;;;;4973823;28;20464;-86
2022/12/17 19:30:01;;;;;;;6.27;4.03;;;-3.60;97.30;;;;;;4974043;28;20452;-84
2022/12/17 19:32:38;;;;;;;4.27;4.00;;;-3.60;97.30;;;;;;4974058;28;20645;-88
2022/12/17 19:35:36;;;;;;;;;;;;;;;;;;;;;
2022/12/17 19:45:14;;;;;;;8.40;4.27;;;-3.70;97.30;;;;;;4946882;28;20437;-84
2022/12/17 19:48:35;;;;;;;;;;;;;;;;;;;;;
2022/12/17 19:51:24;;;;;;;19.50;10.07;;;-3.70;97.30;;;;;;4996158;28;20405;-86
2022/12/17 19:53:50;;;;;;;6.93;5.53;;;-3.70;97.30;;;;;;4971411;28;20977;-85
2022/12/17 19:56:19;;;;;;;9.90;5.83;;;-3.70;97.30;;;;;;4974875;28;20413;-90
2022/12/17 19:58:49;;;;;;;10.63;7.73;;;-3.80;97.30;;;;;;4974461;28;20217;-88
2022/12/17 20:01:18;;;;;;;7.10;5.93;;;-3.80;97.30;;;;;;4984971;28;20412;-87
2022/12/17 20:03:45;;;;;;;8.17;5.47;;;-3.90;97.30;;;;;;4982655;28;20746;-88
2022/12/17 20:06:12;;;;;;;9.63;5.97;;;-3.80;97.30;;;;;;4985421;28;20442;-85
2022/12/17 20:08:38;;;;;;;14.63;4.30;;;-3.80;97.30;;;;;;4989969;28;20479;-85
2022/12/17 20:11:31;;;;;;;19.10;6.87;;;-3.90;97.30;;;;;;4983784;28;20412;-86
2022/12/17 20:13:53;;;;;;;8.60;5.00;;;-3.90;97.30;;;;;;4994671;28;20240;-87
2022/12/17 20:16:19;;;;;;;7.87;5.90;;;-3.90;97.30;;;;;;4985401;28;20594;-87
2022/12/17 20:18:44;;;;;;;8.73;6.40;;;-4.00;97.30;;;;;;4983747;28;20559;-86
2022/12/17 20:21:10;;;;;;;8.03;6.43;;;-4.00;97.30;;;;;;4993529;28;20266;-87
2022/12/17 20:23:35;;;;;;;7.20;5.03;;;-4.00;97.30;;;;;;4989435;28;20202;-89
2022/12/17 20:26:07;;;;;;;6.73;5.70;;;-4.00;97.30;;;;;;4978150;28;20174;-86
2022/12/17 20:28:33;;;;;;;9.90;5.10;;;-4.00;97.30;;;;;;4979192;28;20209;-87
2022/12/17 20:31:00;;;;;;;10.83;5.20;;;-4.10;97.30;;;;;;4980283;28;20545;-88
2022/12/17 20:33:26;;;;;;;14.60;7.70;;;-4.10;97.30;;;;;;4983356;28;20425;-88
2022/12/17 20:35:52;;;;;;;9.83;6.13;;;-4.10;97.30;;;;;;4980475;28;20439;-87
2022/12/17 20:38:18;;;;;;;8.67;4.53;;;-4.20;97.30;;;;;;4981074;28;20406;-86
2022/12/17 20:40:44;;;;;;;13.97;5.90;;;-4.20;97.30;;;;;;4990585;28;20593;-86
2022/12/17 20:43:09;;;;;;;10.57;5.47;;;-4.20;97.30;;;;;;4979811;28;20504;-88
2022/12/17 20:45:37;;;;;;;11.70;5.13;;;-4.30;97.30;;;;;;4983442;28;20524;-88
2022/12/17 20:48:03;;;;;;;5.43;5.13;;;-4.50;97.30;;;;;;4987551;28;20201;-87
2022/12/17 20:50:29;;;;;;;9.53;6.47;;;-4.50;97.30;;;;;;4987191;28;20417;-89
2022/12/17 20:52:55;;;;;;;10.13;8.23;;;-4.60;97.30;;;;;;4983999;28;20671;-90
2022/12/17 20:55:21;;;;;;;6.30;3.47;;;-4.70;97.30;;;;;;4978992;28;20178;-86
2022/12/17 20:57:46;;;;;;;8.27;6.50;;;-4.80;97.30;;;;;;4969220;28;20532;-90
2022/12/17 21:00:12;;;;;;;18.63;6.80;;;-4.90;97.30;;;;;;5003760;28;20543;-89
2022/12/17 21:06:33;;;;;;;17.37;4.37;;;-4.90;97.30;;;;;;5004118;28;20184;-88
2022/12/17 21:08:59;;;;;;;8.40;6.57;;;-4.90;97.30;;;;;;4979213;28;20441;-88
2022/12/17 21:11:29;;;;;;;15.87;7.50;;;-4.90;97.30;;;;;;4981088;28;20444;-87
2022/12/17 21:14:28;;;;;;;;;;;;;;;;;;;;;
2022/12/17 21:17:04;;;;;;;7.90;7.50;;;-4.80;97.30;;;;;;5007200;28;20543;-87
2022/12/17 21:19:30;;;;;;;15.10;5.60;;;-4.80;97.30;;;;;;4989856;28;20469;-88
2022/12/17 21:21:56;;;;;;;7.10;5.87;;;-4.90;97.30;;;;;;4982529;28;20421;-87
2022/12/17 21:24:22;;;;;;;11.90;7.10;;;-4.90;97.30;;;;;;4980454;28;20217;-86
2022/12/17 21:27:01;;;;;;;8.57;6.93;;;-5.00;97.30;;;;;;4979494;28;20201;-87
2022/12/17 21:29:39;;;;;;;6.50;6.10;;;-5.00;97.30;;;;;;4979247;28;20517;-89
2022/12/17 21:32:08;;;;;;;8.70;6.47;;;-5.20;97.30;;;;;;4968268;28;20416;-91
2022/12/17 21:34:34;;;;;;;17.10;8.07;;;-5.30;97.30;;;;;;4983550;28;20935;-87
2022/12/17 21:37:09;;;;;;;;;;;;;;;;;;;;;
2022/12/17 21:39:40;;;;;;;4.50;4.20;;;-5.40;97.30;;;;;;4999251;28;20498;-88
2022/12/17 21:44:50;;;;;;;4.93;4.63;;;-5.50;97.30;;;;;;4999868;28;20412;-87
2022/12/17 21:47:24;;;;;;;7.63;4.20;;;-5.60;97.30;;;;;;4982102;28;20440;-87
2022/12/17 21:49:54;;;;;;;4.80;4.50;;;-5.60;97.30;;;;;;4986514;28;20185;-88
2022/12/17 21:52:31;;;;;;;5.00;4.70;;;-5.60;97.30;;;;;;4984568;28;20415;-88
2022/12/17 21:55:05;;;;;;;12.20;4.30;;;-5.70;97.30;;;;;;4985226;28;20428;-87
2022/12/17 21:57:43;;;;;;;4.53;4.23;;;-5.80;97.30;;;;;;4979486;28;20435;-89
2022/12/17 22:00:12;;;;;;;4.67;4.37;;;-6.00;97.30;;;;;;4979854;28;20425;-87
2022/12/17 22:06:39;;;;;;;9.43;3.40;;;-5.90;97.30;;;;;;4917850;29;20435;-87
2022/12/17 22:09:53;;;;;;;;;;;;;;;;;;;;;
2022/12/17 22:16:03;;;;;;;2.80;2.60;;;-5.90;97.30;;;;;;4924482;29;20459;-87
2022/12/17 22:19:22;;;;;;;13.47;5.90;;;-5.90;97.30;;;;;;4909210;29;20470;-88
2022/12/17 22:21:49;;;;;;;5.67;4.57;;;-6.00;97.30;;;;;;4915124;29;20427;-87
2022/12/17 22:24:21;;;;;;;4.40;4.10;;;-6.00;97.30;;;;;;4939726;28;20476;-87
2022/12/17 22:27:16;;;;;;;7.40;7.00;;;-6.10;97.30;;;;;;4982883;28;20444;-87
2022/12/17 22:35:09;;;;;;;5.77;3.93;;;-6.20;97.30;;;;;;4997700;28;20475;-86
2022/12/17 22:37:35;;;;;;;6.23;5.90;;;-6.30;97.30;;;;;;4974920;28;20479;-86
2022/12/17 22:40:02;;;;;;;4.40;4.10;;;-6.30;97.30;;;;;;4974916;28;20184;-89
2022/12/17 22:45:14;;;;;;;3.23;3.03;;;-6.30;97.30;;;;;;4942635;28;20434;-87
2022/12/17 22:47:39;;;;;;;17.13;6.63;;;-6.30;97.30;;;;;;4971258;28;20451;-89
2022/12/17 22:50:05;;;;;;;17.63;9.30;;;-6.40;97.30;;;;;;4975124;28;20205;-89
2022/12/17 22:52:30;;;;;;;4.67;4.37;;;-6.40;97.30;;;;;;4992853;28;20235;-87
2022/12/17 22:54:56;;;;;;;10.77;5.20;;;-6.40;97.30;;;;;;4975815;28;20432;-89
2022/12/17 22:57:22;;;;;;;5.40;5.10;;;-6.40;97.30;;;;;;4976031;28;20206;-86
2022/12/17 22:59:47;;;;;;;4.53;4.23;;;-6.40;97.30;;;;;;4986204;28;20195;-90
2022/12/17 23:02:13;;;;;;;11.83;6.67;;;-6.40;97.30;;;;;;4995086;28;20625;-90
2022/12/17 23:04:38;;;;;;;5.80;4.27;;;-6.40;97.30;;;;;;4977832;28;20216;-86
2022/12/17 23:07:04;;;;;;;42.23;8.03;;;-6.40;97.30;;;;;;4973686;28;20200;-89
2022/12/17 23:09:29;;;;;;;13.70;7.80;;;-6.50;97.30;;;;;;4991903;28;20184;-90
2022/12/17 23:11:55;;;;;;;7.67;4.77;;;-6.50;97.30;;;;;;4973770;28;20275;-86
2022/12/17 23:14:22;;;;;;;5.43;4.20;;;-6.50;97.30;;;;;;4973114;28;20299;-84
2022/12/17 23:16:47;;;;;;;3.57;3.37;;;-6.60;97.30;;;;;;4972647;28;20904;-87
2022/12/17 23:19:13;;;;;;;4.73;4.43;;;-6.60;97.30;;;;;;4981206;28;20702;-86
2022/12/17 23:21:38;;;;;;;4.77;4.47;;;-6.70;97.30;;;;;;4970764;28;20190;-86
2022/12/17 23:24:04;;;;;;;8.17;6.23;;;-6.70;97.30;;;;;;4961335;28;20629;-88
2022/12/17 23:26:33;;;;;;;11.20;6.13;;;-6.80;97.30;;;;;;4979384;23;20235;-85
2022/12/17 23:29:03;;;;;;;6.73;5.37;;;-6.80;97.30;;;;;;4975709;28;20499;-86
2022/12/17 23:31:32;;;;;;;9.67;6.23;;;-6.80;97.30;;;;;;4987479;28;20431;-82
2022/12/17 23:33:58;;;;;;;2.90;2.70;;;-6.90;97.30;;;;;;4972647;28;20503;-86
2022/12/17 23:36:24;;;;;;;5.93;5.63;;;-6.90;97.30;;;;;;4976802;28;20480;-84
2022/12/17 23:38:51;;;;;;;3.33;3.13;;;-7.00;97.30;;;;;;4970652;28;20192;-86
2022/12/17 23:41:22;;;;;;;9.03;6.73;;;-7.10;97.30;;;;;;4969045;28;20426;-82
2022/12/17 23:43:48;;;;;;;6.83;4.90;;;-7.20;97.30;;;;;;4981982;28;20972;-82
2022/12/17 23:46:15;;;;;;;3.60;3.40;;;-7.30;97.30;;;;;;4969630;28;20466;-85
2022/12/17 23:48:43;;;;;;;13.90;7.70;;;-7.40;97.30;;;;;;4980382;28;20423;-85
2022/12/17 23:51:09;;;;;;;13.53;4.60;;;-7.40;97.30;;;;;;4957842;28;20800;-81
2022/12/17 23:53:35;;;;;;;16.20;4.43;;;-7.40;97.30;;;;;;4959464;28;20484;-83
2022/12/17 23:56:09;;;;;;;6.20;4.97;;;-7.50;97.30;;;;;;4971441;28;20450;-85
2022/12/17 23:58:36;;;;;;;4.53;4.23;;;-7.50;97.30;;;;;;4980547;28;20418;-84
